Time;durP1;ratioP1;P1;durP2;ratioP2;P2;SDS_P1;SDS_P2;PMS_P1;PMS_P2;Temp;Humidity;BMP_temperature;BMP_pressure;BME280_temperature;BME280_humidity;BME280_pressure;Samples;Min_cycle;Max_cycle;Signal;HPM_P1;HPM_P2
2022/04/16 00:00:03;;;;;;;;;;;;;;;;;;5112265;28;20007;-47
2022/04/16 00:02:29;;;;;;;;;;;;;;;;;;5116239;28;19908;-43
2022/04/16 00:04:57;;;;;;;;;;;;;;;;;;5116182;28;19931;-50
2022/04/16 00:07:23;;;;;;;;;;;;;;;;;;5116093;28;19916;-52
2022/04/16 00:09:50;;;;;;;;;;;;;;;;;;5115765;28;19908;-54
2022/04/16 00:12:16;;;;;;;;;;;;;;;;;;5106726;28;19961;-40
2022/04/16 00:14:43;;;;;;;;;;;;;;;;;;5096415;28;19916;-51
2022/04/16 00:17:09;;;;;;;;;;;;;;;;;;5095830;28;19919;-52
2022/04/16 00:19:36;;;;;;;;;;;;;;;;;;5095758;28;19912;-50
2022/04/16 00:22:07;;;;;;;;;;;;;;;;;;5095581;28;19998;-55
2022/04/16 00:24:34;;;;;;;;;;;;;;;;;;5095664;28;19958;-50
2022/04/16 00:27:00;;;;;;;;;;;;;;;;;;5095286;28;19952;-51
2022/04/16 00:29:26;;;;;;;;;;;;;;;;;;5095406;28;19908;-49
2022/04/16 00:31:53;;;;;;;;;;;;;;;;;;5094879;28;19909;-54
2022/04/16 00:34:19;;;;;;;;;;;;;;;;;;5102686;28;20378;-52
2022/04/16 00:36:47;;;;;;;;;;;;;;;;;;5115637;27;20319;-50
2022/04/16 00:39:13;;;;;;;;;;;;;;;;;;5115353;28;20390;-54
2022/04/16 00:41:40;;;;;;;;;;;;;;;;;;5115149;28;20373;-51
2022/04/16 00:44:07;;;;;;;;;;;;;;;;;;5115789;28;19908;-52
2022/04/16 00:46:34;;;;;;;;;;;;;;;;;;5115344;28;19953;-46
2022/04/16 00:49:03;;;;;;;;;;;;;;;;;;5115414;28;19908;-56
2022/04/16 00:51:30;;;;;;;;;;;;;;;;;;5115161;28;20312;-58
2022/04/16 00:53:56;;;;;;;;;;;;;;;;;;5115765;28;19960;-49
2022/04/16 00:56:23;;;;;;;;;;;;;;;;;;5115577;28;19914;-54
2022/04/16 00:58:49;;;;;;;;;;;;;;;;;;5114804;27;19908;-50
2022/04/16 01:01:19;;;;;;;;;;;;;;;;;;5114907;28;19919;-49
2022/04/16 01:03:46;;;;;;;;;;;;;;;;;;5115003;28;19908;-52
2022/04/16 01:06:15;;;;;;;;;;;;;;;;;;5115158;28;20003;-51
2022/04/16 01:08:44;;;;;;;;;;;;;;;;;;5115421;28;20002;-53
2022/04/16 01:11:10;;;;;;;;;;;;;;;;;;5114640;28;19995;-46
2022/04/16 01:13:37;;;;;;;;;;;;;;;;;;5114594;28;19907;-55
2022/04/16 01:16:04;;;;;;;;;;;;;;;;;;5115139;28;19911;-52
2022/04/16 01:18:30;;;;;;;;;;;;;;;;;;5114639;28;19977;-54
2022/04/16 01:20:57;;;;;;;;;;;;;;;;;;5114663;28;19923;-51
2022/04/16 01:23:23;;;;;;;;;;;;;;;;;;5114700;27;19919;-51
2022/04/16 01:25:50;;;;;;;;;;;;;;;;;;5114677;28;20327;-48
2022/04/16 01:28:17;;;;;;;;;;;;;;;;;;5114405;28;20354;-56
2022/04/16 01:30:44;;;;;;;;;;;;;;;;;;5114382;28;20575;-54
2022/04/16 01:33:11;;;;;;;;;;;;;;;;;;5114301;27;19951;-52
2022/04/16 01:35:37;;;;;;;;;;;;;;;;;;5114243;28;19907;-53
2022/04/16 01:38:04;;;;;;;;;;;;;;;;;;5114466;28;19912;-53
2022/04/16 01:40:30;;;;;;;;;;;;;;;;;;5114557;28;20269;-53
2022/04/16 01:42:57;;;;;;;;;;;;;;;;;;5114599;28;19908;-52
2022/04/16 01:45:24;;;;;;;;;;;;;;;;;;5114133;28;19922;-55
2022/04/16 01:47:50;;;;;;;;;;;;;;;;;;5114391;28;19915;-51
2022/04/16 01:50:18;;;;;;;;;;;;;;;;;;5109334;28;20278;-53
2022/04/16 01:52:44;;;;;;;;;;;;;;;;;;5093965;28;20392;-53
2022/04/16 01:55:12;;;;;;;;;;;;;;;;;;5093569;28;20274;-51
2022/04/16 01:57:39;;;;;;;;;;;;;;;;;;5095908;28;19918;-56
2022/04/16 02:00:06;;;;;;;;;;;;;;;;;;5113880;28;20415;-52
2022/04/16 02:02:33;;;;;;;;;;;;;;;;;;5114617;28;19908;-57
2022/04/16 02:04:59;;;;;;;;;;;;;;;;;;5113281;28;19965;-57
2022/04/16 02:07:26;;;;;;;;;;;;;;;;;;5113927;28;19914;-54
2022/04/16 02:09:52;;;;;;;;;;;;;;;;;;5114508;28;20324;-54
2022/04/16 02:12:19;;;;;;;;;;;;;;;;;;5113245;28;19908;-56
2022/04/16 02:14:45;;;;;;;;;;;;;;;;;;5112397;28;19911;-52
2022/04/16 02:17:11;;;;;;;;;;;;;;;;;;5113480;28;19908;-51
2022/04/16 02:19:38;;;;;;;;;;;;;;;;;;5114374;28;19915;-54
2022/04/16 02:22:04;;;;;;;;;;;;;;;;;;5114086;28;20042;-55
2022/04/16 02:24:32;;;;;;;;;;;;;;;;;;5112205;28;19923;-51
2022/04/16 02:26:58;;;;;;;;;;;;;;;;;;5113496;28;20333;-57
2022/04/16 02:29:25;;;;;;;;;;;;;;;;;;5113046;28;19912;-54
2022/04/16 02:31:51;;;;;;;;;;;;;;;;;;5112964;28;19915;-56
2022/04/16 02:34:19;;;;;;;;;;;;;;;;;;5113676;28;20329;-50
2022/04/16 02:36:45;;;;;;;;;;;;;;;;;;5112659;28;19915;-51
2022/04/16 02:39:12;;;;;;;;;;;;;;;;;;5112720;28;20274;-52
2022/04/16 02:41:39;;;;;;;;;;;;;;;;;;5113541;28;19977;-58
2022/04/16 02:44:05;;;;;;;;;;;;;;;;;;5113341;28;20096;-52
2022/04/16 02:49:16;;;;;;;;;;;;;;;;;;5113053;28;19954;-51
2022/04/16 02:51:43;;;;;;;;;;;;;;;;;;5113034;28;19908;-52
2022/04/16 02:54:10;;;;;;;;;;;;;;;;;;5107082;28;19960;-56
2022/04/16 02:56:37;;;;;;;;;;;;;;;;;;5092892;28;19940;-52
2022/04/16 02:59:03;;;;;;;;;;;;;;;;;;5092442;28;19947;-55
2022/04/16 03:01:30;;;;;;;;;;;;;;;;;;5090176;28;19919;-43
2022/04/16 03:03:56;;;;;;;;;;;;;;;;;;5092565;28;19981;-47
2022/04/16 03:06:23;;;;;;;;;;;;;;;;;;5091125;28;19961;-42
2022/04/16 03:08:50;;;;;;;;;;;;;;;;;;5092455;28;20294;-51
2022/04/16 03:11:16;;;;;;;;;;;;;;;;;;5091888;28;20016;-50
2022/04/16 03:13:43;;;;;;;;;;;;;;;;;;5092729;28;19952;-49
2022/04/16 03:18:54;;;;;;;;;;;;;;;;;;5092789;28;19919;-47
2022/04/16 03:21:21;;;;;;;;;;;;;;;;;;5092662;28;20002;-49
2022/04/16 03:23:47;;;;;;;;;;;;;;;;;;5092231;28;19969;-51
2022/04/16 03:26:14;;;;;;;;;;;;;;;;;;5092139;28;19913;-48
2022/04/16 03:28:41;;;;;;;;;;;;;;;;;;5093008;28;19908;-48
2022/04/16 03:31:07;;;;;;;;;;;;;;;;;;5092189;28;19908;-49
2022/04/16 03:33:34;;;;;;;;;;;;;;;;;;5092818;28;19955;-48
2022/04/16 03:36:00;;;;;;;;;;;;;;;;;;5095350;28;20052;-53
2022/04/16 03:38:27;;;;;;;;;;;;;;;;;;5109239;28;19911;-55
2022/04/16 03:40:53;;;;;;;;;;;;;;;;;;5116874;28;20018;-53
2022/04/16 03:43:20;;;;;;;;;;;;;;;;;;5116661;28;20006;-55
2022/04/16 03:45:47;;;;;;;;;;;;;;;;;;5116366;28;19994;-51
2022/04/16 03:48:15;;;;;;;;;;;;;;;;;;5117041;28;19907;-47
2022/04/16 03:50:41;;;;;;;;;;;;;;;;;;5116484;28;19946;-53
2022/04/16 03:53:07;;;;;;;;;;;;;;;;;;5116704;28;19912;-56
2022/04/16 04:01:03;;;;;;;;;;;;;;;;;;5095380;28;19927;-47
2022/04/16 04:03:30;;;;;;;;;;;;;;;;;;5094570;28;19957;-53
2022/04/16 04:05:58;;;;;;;;;;;;;;;;;;5107473;28;19920;-51
2022/04/16 04:08:28;;;;;;;;;;;;;;;;;;5116233;28;19908;-49
2022/04/16 04:10:58;;;;;;;;;;;;;;;;;;5116006;28;22658;-46
2022/04/16 04:13:24;;;;;;;;;;;;;;;;;;5115003;28;19977;-57
2022/04/16 04:15:51;;;;;;;;;;;;;;;;;;5115767;28;19919;-51
2022/04/16 04:18:17;;;;;;;;;;;;;;;;;;5115665;28;20247;-56
2022/04/16 04:20:43;;;;;;;;;;;;;;;;;;5116193;28;19973;-58
2022/04/16 04:23:10;;;;;;;;;;;;;;;;;;5115239;28;20250;-46
2022/04/16 04:25:36;;;;;;;;;;;;;;;;;;5116070;28;19908;-50
2022/04/16 04:28:03;;;;;;;;;;;;;;;;;;5115873;28;20313;-53
2022/04/16 04:30:30;;;;;;;;;;;;;;;;;;5114644;28;20274;-45
2022/04/16 04:32:58;;;;;;;;;;;;;;;;;;5115949;28;19908;-48
2022/04/16 04:35:25;;;;;;;;;;;;;;;;;;5115799;28;19915;-51
2022/04/16 04:37:51;;;;;;;;;;;;;;;;;;5113788;28;20428;-46
2022/04/16 04:40:18;;;;;;;;;;;;;;;;;;5074366;28;19916;-51
2022/04/16 04:42:44;;;;;;;;;;;;;;;;;;5074617;28;20495;-53
2022/04/16 04:45:10;;;;;;;;;;;;;;;;;;5074151;28;20248;-51
2022/04/16 04:47:37;;;;;;;;;;;;;;;;;;5073970;28;19999;-49
2022/04/16 04:50:03;;;;;;;;;;;;;;;;;;5074655;28;19932;-52
2022/04/16 04:52:30;;;;;;;;;;;;;;;;;;5075020;28;19958;-49
2022/04/16 04:54:57;;;;;;;;;;;;;;;;;;5074594;28;19904;-53
2022/04/16 04:57:23;;;;;;;;;;;;;;;;;;5074605;28;20392;-52
2022/04/16 04:59:50;;;;;;;;;;;;;;;;;;5074655;28;20363;-54
2022/04/16 05:02:16;;;;;;;;;;;;;;;;;;5074816;28;19912;-52
2022/04/16 05:04:42;;;;;;;;;;;;;;;;;;5074092;28;19928;-57
2022/04/16 05:07:09;;;;;;;;;;;;;;;;;;5074560;28;19914;-55
2022/04/16 05:09:36;;;;;;;;;;;;;;;;;;5074420;28;20297;-57
2022/04/16 05:12:02;;;;;;;;;;;;;;;;;;5074632;28;19908;-53
2022/04/16 05:14:29;;;;;;;;;;;;;;;;;;5086830;28;19908;-47
2022/04/16 05:16:55;;;;;;;;;;;;;;;;;;5115240;28;19962;-51
2022/04/16 05:19:22;;;;;;;;;;;;;;;;;;5114797;28;19966;-45
2022/04/16 05:21:48;;;;;;;;;;;;;;;;;;5103249;28;19915;-48
2022/04/16 05:24:15;;;;;;;;;;;;;;;;;;5094597;28;20430;-48
2022/04/16 05:26:41;;;;;;;;;;;;;;;;;;5093918;28;20271;-43
2022/04/16 05:29:08;;;;;;;;;;;;;;;;;;5093960;28;19991;-41
2022/04/16 05:31:34;;;;;;;;;;;;;;;;;;5094254;28;19913;-48
2022/04/16 05:34:19;;;;;;;;;;;;;;;;;;5094591;28;19920;-50
2022/04/16 05:36:45;;;;;;;;;;;;;;;;;;5094378;28;20367;-47
2022/04/16 05:39:12;;;;;;;;;;;;;;;;;;5093942;28;20258;-53
2022/04/16 05:41:38;;;;;;;;;;;;;;;;;;5094317;28;19908;-52
2022/04/16 05:44:05;;;;;;;;;;;;;;;;;;5093760;28;19954;-51
2022/04/16 05:46:31;;;;;;;;;;;;;;;;;;5093810;28;19961;-54
2022/04/16 05:48:58;;;;;;;;;;;;;;;;;;5094015;28;19914;-49
2022/04/16 05:51:24;;;;;;;;;;;;;;;;;;5093933;28;19912;-49
2022/04/16 05:53:50;;;;;;;;;;;;;;;;;;5093687;28;19962;-46
2022/04/16 05:56:17;;;;;;;;;;;;;;;;;;5094093;28;19908;-55
2022/04/16 05:58:43;;;;;;;;;;;;;;;;;;5092838;28;19956;-50
2022/04/16 06:01:10;;;;;;;;;;;;;;;;;;5093876;28;19923;-53
2022/04/16 06:03:42;;;;;;;;;;;;;;;;;;5094032;28;19999;-53
2022/04/16 06:06:08;;;;;;;;;;;;;;;;;;5093813;28;19920;-49
2022/04/16 06:08:35;;;;;;;;;;;;;;;;;;5093964;28;19912;-54
2022/04/16 06:11:01;;;;;;;;;;;;;;;;;;5102504;28;19908;-44
2022/04/16 06:13:30;;;;;;;;;;;;;;;;;;5113529;28;19930;-46
2022/04/16 06:15:56;;;;;;;;;;;;;;;;;;5113939;28;19907;-46
2022/04/16 06:18:23;;;;;;;;;;;;;;;;;;5113607;28;20327;-55
2022/04/16 06:20:49;;;;;;;;;;;;;;;;;;5113474;28;20362;-47
2022/04/16 06:23:15;;;;;;;;;;;;;;;;;;5113735;28;20313;-44
2022/04/16 06:25:42;;;;;;;;;;;;;;;;;;5112598;28;20354;-45
2022/04/16 06:28:08;;;;;;;;;;;;;;;;;;5113589;28;19991;-52
2022/04/16 06:30:35;;;;;;;;;;;;;;;;;;5112438;28;19998;-53
2022/04/16 06:33:01;;;;;;;;;;;;;;;;;;5112727;28;19908;-53
2022/04/16 06:35:28;;;;;;;;;;;;;;;;;;5113549;28;19907;-51
2022/04/16 06:37:54;;;;;;;;;;;;;;;;;;5113879;28;19908;-49
2022/04/16 06:40:21;;;;;;;;;;;;;;;;;;5113197;28;19916;-49
2022/04/16 06:42:48;;;;;;;;;;;;;;;;;;5111778;28;19908;-54
2022/04/16 06:45:14;;;;;;;;;;;;;;;;;;5113665;28;19950;-48
2022/04/16 06:47:41;;;;;;;;;;;;;;;;;;5113415;28;19912;-56
2022/04/16 06:50:07;;;;;;;;;;;;;;;;;;5113795;28;19914;-52
2022/04/16 06:52:34;;;;;;;;;;;;;;;;;;5113380;28;19964;-45
2022/04/16 06:55:00;;;;;;;;;;;;;;;;;;5113518;28;19908;-48
2022/04/16 06:57:27;;;;;;;;;;;;;;;;;;5112663;28;19931;-54
2022/04/16 06:59:53;;;;;;;;;;;;;;;;;;5113105;28;19916;-51
2022/04/16 07:02:20;;;;;;;;;;;;;;;;;;5113112;28;19952;-57
2022/04/16 07:04:46;;;;;;;;;;;;;;;;;;5112974;28;20038;-49
2022/04/16 07:07:13;;;;;;;;;;;;;;;;;;5112765;28;19908;-53
2022/04/16 07:09:39;;;;;;;;;;;;;;;;;;5113051;28;19908;-53
2022/04/16 07:12:06;;;;;;;;;;;;;;;;;;5113214;28;19908;-53
2022/04/16 07:14:33;;;;;;;;;;;;;;;;;;5113082;28;20373;-45
2022/04/16 07:17:01;;;;;;;;;;;;;;;;;;5112774;28;19996;-50
2022/04/16 07:19:27;;;;;;;;;;;;;;;;;;5112619;28;19912;-45
2022/04/16 07:21:54;;;;;;;;;;;;;;;;;;5112800;28;19916;-46
2022/04/16 07:24:21;;;;;;;;;;;;;;;;;;5105199;28;19908;-47
2022/04/16 07:26:47;;;;;;;;;;;;;;;;;;5092419;28;19908;-49
2022/04/16 07:29:14;;;;;;;;;;;;;;;;;;5092126;28;19919;-56
2022/04/16 07:31:40;;;;;;;;;;;;;;;;;;5092569;28;19961;-53
2022/04/16 07:34:07;;;;;;;;;;;;;;;;;;5091499;28;19908;-55
2022/04/16 07:36:33;;;;;;;;;;;;;;;;;;5092839;28;19909;-53
2022/04/16 07:39:00;;;;;;;;;;;;;;;;;;5106587;28;20222;-50
2022/04/16 07:41:26;;;;;;;;;;;;;;;;;;5112731;28;19915;-49
2022/04/16 07:43:53;;;;;;;;;;;;;;;;;;5112540;28;20427;-56
2022/04/16 07:46:22;;;;;;;;;;;;;;;;;;5112785;28;20282;-51
2022/04/16 07:48:49;;;;;;;;;;;;;;;;;;5112410;28;19958;-58
2022/04/16 07:51:15;;;;;;;;;;;;;;;;;;5112843;28;19908;-54
2022/04/16 07:53:41;;;;;;;;;;;;;;;;;;5113284;28;19912;-53
2022/04/16 07:56:08;;;;;;;;;;;;;;;;;;5111654;28;19915;-50
2022/04/16 07:58:34;;;;;;;;;;;;;;;;;;5112260;28;19908;-54
2022/04/16 08:01:01;;;;;;;;;;;;;;;;;;5112854;28;19922;-49
2022/04/16 08:03:27;;;;;;;;;;;;;;;;;;5112532;28;19915;-52
2022/04/16 08:05:54;;;;;;;;;;;;;;;;;;5112793;28;19988;-50
2022/04/16 08:08:20;;;;;;;;;;;;;;;;;;5112989;28;19915;-49
2022/04/16 08:10:51;;;;;;;;;;;;;;;;;;5112752;28;20282;-46
2022/04/16 08:13:18;;;;;;;;;;;;;;;;;;5112215;28;19908;-53
2022/04/16 08:15:45;;;;;;;;;;;;;;;;;;5112677;28;19961;-53
2022/04/16 08:18:11;;;;;;;;;;;;;;;;;;5112371;28;19950;-51
2022/04/16 08:20:38;;;;;;;;;;;;;;;;;;5112817;28;19923;-58
2022/04/16 08:23:06;;;;;;;;;;;;;;;;;;5115133;28;19977;-50
2022/04/16 08:28:02;;;;;;;;;;;;;;;;;;5116048;28;19908;-48
2022/04/16 08:30:28;;;;;;;;;;;;;;;;;;5116757;28;19907;-55
2022/04/16 08:32:55;;;;;;;;;;;;;;;;;;5115674;28;19914;-53
2022/04/16 08:35:21;;;;;;;;;;;;;;;;;;5116270;28;20282;-51
2022/04/16 08:37:48;;;;;;;;;;;;;;;;;;5116052;27;20308;-49
2022/04/16 08:40:14;;;;;;;;;;;;;;;;;;5116337;28;19915;-46
2022/04/16 08:42:41;;;;;;;;;;;;;;;;;;5116104;28;19907;-48
2022/04/16 08:45:07;;;;;;;;;;;;;;;;;;5115989;28;19943;-57
2022/04/16 08:47:34;;;;;;;;;;;;;;;;;;5114821;28;19987;-46
2022/04/16 08:50:00;;;;;;;;;;;;;;;;;;5116408;28;19904;-52
2022/04/16 08:52:27;;;;;;;;;;;;;;;;;;5114169;28;19969;-47
2022/04/16 08:54:55;;;;;;;;;;;;;;;;;;5095595;28;19951;-54
2022/04/16 08:57:21;;;;;;;;;;;;;;;;;;5095162;28;19908;-57
2022/04/16 08:59:48;;;;;;;;;;;;;;;;;;5095486;28;19912;-48
2022/04/16 09:02:14;;;;;;;;;;;;;;;;;;5093879;28;20026;-44
2022/04/16 09:04:40;;;;;;;;;;;;;;;;;;5094613;28;19920;-53
2022/04/16 09:07:07;;;;;;;;;;;;;;;;;;5104169;28;19991;-48
2022/04/16 09:09:34;;;;;;;;;;;;;;;;;;5115726;28;20281;-52
2022/04/16 09:12:01;;;;;;;;;;;;;;;;;;5115639;27;19911;-51
2022/04/16 09:14:27;;;;;;;;;;;;;;;;;;5115559;28;19929;-53
2022/04/16 09:16:54;;;;;;;;;;;;;;;;;;5115606;28;19914;-53
2022/04/16 09:19:21;;;;;;;;;;;;;;;;;;5115137;28;19916;-49
2022/04/16 09:21:48;;;;;;;;;;;;;;;;;;5115394;28;19912;-49
2022/04/16 09:24:14;;;;;;;;;;;;;;;;;;5115348;28;19918;-55
2022/04/16 09:26:41;;;;;;;;;;;;;;;;;;5115459;28;19961;-57
2022/04/16 09:29:07;;;;;;;;;;;;;;;;;;5115439;28;20365;-55
2022/04/16 09:31:34;;;;;;;;;;;;;;;;;;5115652;28;19919;-46
2022/04/16 09:34:01;;;;;;;;;;;;;;;;;;5114578;28;19908;-53
2022/04/16 09:36:27;;;;;;;;;;;;;;;;;;5114967;28;19915;-47
2022/04/16 09:38:53;;;;;;;;;;;;;;;;;;5114419;28;19912;-53
2022/04/16 09:41:20;;;;;;;;;;;;;;;;;;5114759;28;19955;-52
2022/04/16 09:43:46;;;;;;;;;;;;;;;;;;5115212;28;19908;-48
2022/04/16 09:46:13;;;;;;;;;;;;;;;;;;5115114;28;19914;-48
2022/04/16 09:48:39;;;;;;;;;;;;;;;;;;5114609;28;19961;-51
2022/04/16 09:51:06;;;;;;;;;;;;;;;;;;5113287;28;20269;-52
2022/04/16 09:53:32;;;;;;;;;;;;;;;;;;5114985;28;19908;-54
2022/04/16 09:55:59;;;;;;;;;;;;;;;;;;5115071;28;19907;-47
2022/04/16 09:58:25;;;;;;;;;;;;;;;;;;5114775;28;19914;-47
2022/04/16 10:00:52;;;;;;;;;;;;;;;;;;5114798;28;19916;-59
2022/04/16 10:03:19;;;;;;;;;;;;;;;;;;5114347;28;19908;-50
2022/04/16 10:05:45;;;;;;;;;;;;;;;;;;5114362;28;19920;-53
2022/04/16 10:08:13;;;;;;;;;;;;;;;;;;5114666;28;19934;-52
2022/04/16 10:10:46;;;;;;;;;;;;;;;;;;5114540;28;19960;-50
2022/04/16 10:13:14;;;;;;;;;;;;;;;;;;5113383;28;19908;-46
2022/04/16 10:15:42;;;;;;;;;;;;;;;;;;5114489;28;19915;-53
2022/04/16 10:18:08;;;;;;;;;;;;;;;;;;5114458;28;19908;-51
2022/04/16 10:20:35;;;;;;;;;;;;;;;;;;5114195;28;20318;-47
2022/04/16 10:23:05;;;;;;;;;;;;;;;;;;5114409;28;19907;-50
2022/04/16 10:25:35;;;;;;;;;;;;;;;;;;5113886;28;20006;-54
2022/04/16 10:28:02;;;;;;;;;;;;;;;;;;5101371;28;20277;-51
2022/04/16 10:30:28;;;;;;;;;;;;;;;;;;5093999;28;20321;-57
2022/04/16 10:32:55;;;;;;;;;;;;;;;;;;5093536;28;19908;-49
2022/04/16 10:35:21;;;;;;;;;;;;;;;;;;5093560;28;19961;-53
2022/04/16 10:37:48;;;;;;;;;;;;;;;;;;5093654;28;19915;-53
2022/04/16 10:40:14;;;;;;;;;;;;;;;;;;5093548;28;19965;-49
2022/04/16 10:42:41;;;;;;;;;;;;;;;;;;5111876;28;20047;-54
2022/04/16 10:45:10;;;;;;;;;;;;;;;;;;5112893;28;20259;-54
2022/04/16 10:47:41;;;;;;;;;;;;;;;;;;5113880;28;19908;-55
2022/04/16 10:50:08;;;;;;;;;;;;;;;;;;5100614;28;19908;-50
2022/04/16 10:52:34;;;;;;;;;;;;;;;;;;5093706;28;19926;-52
2022/04/16 10:55:00;;;;;;;;;;;;;;;;;;5103232;28;19933;-55
2022/04/16 10:57:27;;;;;;;;;;;;;;;;;;5113459;28;20301;-54
2022/04/16 10:59:53;;;;;;;;;;;;;;;;;;5113773;28;20476;-52
2022/04/16 11:02:20;;;;;;;;;;;;;;;;;;5113658;28;19908;-45
2022/04/16 11:04:47;;;;;;;;;;;;;;;;;;5113876;28;19920;-49
2022/04/16 11:07:13;;;;;;;;;;;;;;;;;;5113339;28;20298;-48
2022/04/16 11:09:40;;;;;;;;;;;;;;;;;;5113535;28;20259;-57
2022/04/16 11:12:07;;;;;;;;;;;;;;;;;;5113383;28;19908;-51
2022/04/16 11:14:34;;;;;;;;;;;;;;;;;;5113335;28;20285;-51
2022/04/16 11:17:00;;;;;;;;;;;;;;;;;;5113488;28;19915;-44
2022/04/16 11:19:27;;;;;;;;;;;;;;;;;;5113302;28;19962;-47
2022/04/16 11:21:53;;;;;;;;;;;;;;;;;;5113434;28;19912;-51
2022/04/16 11:24:20;;;;;;;;;;;;;;;;;;5113118;28;19914;-55
2022/04/16 11:35:00;;;;;;;;;;;;;;;;;;5113017;28;19914;-44
2022/04/16 11:37:27;;;;;;;;;;;;;;;;;;5112545;28;19908;-54
2022/04/16 11:39:53;;;;;;;;;;;;;;;;;;5112936;28;19916;-52
2022/04/16 11:42:20;;;;;;;;;;;;;;;;;;5113186;28;19908;-52
2022/04/16 11:44:50;;;;;;;;;;;;;;;;;;5113266;28;19990;-57
2022/04/16 11:47:20;;;;;;;;;;;;;;;;;;5113075;28;19908;-50
2022/04/16 11:49:49;;;;;;;;;;;;;;;;;;5110715;28;19919;-53
2022/04/16 11:52:15;;;;;;;;;;;;;;;;;;5092717;28;19909;-48
2022/04/16 11:54:43;;;;;;;;;;;;;;;;;;5092792;28;19908;-54
2022/04/16 11:57:09;;;;;;;;;;;;;;;;;;5095696;28;20089;-53
2022/04/16 11:59:36;;;;;;;;;;;;;;;;;;5096426;28;19912;-54
2022/04/16 12:02:02;;;;;;;;;;;;;;;;;;5098542;28;20007;-53
2022/04/16 12:04:28;;;;;;;;;;;;;;;;;;5117171;28;20410;-52
2022/04/16 12:06:55;;;;;;;;;;;;;;;;;;5116858;28;20362;-56
2022/04/16 12:09:22;;;;;;;;;;;;;;;;;;5116796;27;19933;-54
2022/04/16 12:11:48;;;;;;;;;;;;;;;;;;5116617;28;19993;-48
2022/04/16 12:14:14;;;;;;;;;;;;;;;;;;5116690;28;19911;-56
2022/04/16 12:16:41;;;;;;;;;;;;;;;;;;5116662;28;20342;-50
2022/04/16 12:19:07;;;;;;;;;;;;;;;;;;5116605;28;19912;-54
2022/04/16 12:21:34;;;;;;;;;;;;;;;;;;5116369;28;20369;-54
2022/04/16 12:24:00;;;;;;;;;;;;;;;;;;5116416;28;20344;-55
2022/04/16 12:26:27;;;;;;;;;;;;;;;;;;5116766;28;19944;-53
2022/04/16 12:28:55;;;;;;;;;;;;;;;;;;5116798;28;19977;-57
2022/04/16 12:31:21;;;;;;;;;;;;;;;;;;5116079;28;19915;-53
2022/04/16 12:33:48;;;;;;;;;;;;;;;;;;5116495;28;19915;-56
2022/04/16 12:36:14;;;;;;;;;;;;;;;;;;5116888;28;20400;-55
2022/04/16 12:38:41;;;;;;;;;;;;;;;;;;5114673;28;19920;-54
2022/04/16 12:41:08;;;;;;;;;;;;;;;;;;5115711;28;19916;-49
2022/04/16 12:43:35;;;;;;;;;;;;;;;;;;5116420;27;19919;-52
2022/04/16 12:46:01;;;;;;;;;;;;;;;;;;5115690;28;20506;-56
2022/04/16 12:48:27;;;;;;;;;;;;;;;;;;5116445;28;19941;-56
2022/04/16 12:50:54;;;;;;;;;;;;;;;;;;5116203;28;20358;-53
2022/04/16 12:53:20;;;;;;;;;;;;;;;;;;5115846;28;20259;-54
2022/04/16 12:55:47;;;;;;;;;;;;;;;;;;5115908;28;19904;-49
2022/04/16 12:58:13;;;;;;;;;;;;;;;;;;5116067;28;19908;-54
2022/04/16 13:00:40;;;;;;;;;;;;;;;;;;5115904;28;20378;-52
2022/04/16 13:03:07;;;;;;;;;;;;;;;;;;5115370;28;19965;-54
2022/04/16 13:05:33;;;;;;;;;;;;;;;;;;5115791;28;20000;-46
2022/04/16 13:08:00;;;;;;;;;;;;;;;;;;5115053;28;19908;-50
2022/04/16 13:10:26;;;;;;;;;;;;;;;;;;5115126;28;20392;-56
2022/04/16 13:12:53;;;;;;;;;;;;;;;;;;5115295;28;19915;-50
2022/04/16 13:15:22;;;;;;;;;;;;;;;;;;5114960;28;19912;-53
2022/04/16 13:17:49;;;;;;;;;;;;;;;;;;5115567;28;19908;-51
2022/04/16 13:20:15;;;;;;;;;;;;;;;;;;5115286;28;20016;-53
2022/04/16 13:22:42;;;;;;;;;;;;;;;;;;5115499;28;19907;-52
2022/04/16 13:25:08;;;;;;;;;;;;;;;;;;5114972;28;20041;-55
2022/04/16 13:27:35;;;;;;;;;;;;;;;;;;5115176;27;19961;-52
2022/04/16 13:30:01;;;;;;;;;;;;;;;;;;5114770;28;20008;-48
2022/04/16 13:32:28;;;;;;;;;;;;;;;;;;5115182;28;19908;-54
2022/04/16 13:34:54;;;;;;;;;;;;;;;;;;5115536;28;19919;-54
2022/04/16 13:37:23;;;;;;;;;;;;;;;;;;5115222;28;19908;-54
2022/04/16 13:42:34;;;;;;;;;;;;;;;;;;5115175;28;19919;-54
2022/04/16 13:45:00;;;;;;;;;;;;;;;;;;5115131;28;19908;-56
2022/04/16 13:47:26;;;;;;;;;;;;;;;;;;5114779;28;19908;-50
2022/04/16 13:49:53;;;;;;;;;;;;;;;;;;5114798;28;20298;-45
2022/04/16 13:52:19;;;;;;;;;;;;;;;;;;5114867;28;20270;-50
2022/04/16 13:54:46;;;;;;;;;;;;;;;;;;5113773;28;19911;-49
2022/04/16 13:57:12;;;;;;;;;;;;;;;;;;5114422;28;19962;-52
2022/04/16 13:59:40;;;;;;;;;;;;;;;;;;5114856;28;19912;-56
2022/04/16 14:02:06;;;;;;;;;;;;;;;;;;5114654;28;19939;-47
2022/04/16 14:07:18;;;;;;;;;;;;;;;;;;5114692;28;20376;-53
2022/04/16 14:09:44;;;;;;;;;;;;;;;;;;5113723;27;19915;-54
2022/04/16 14:12:13;;;;;;;;;;;;;;;;;;5114751;28;19908;-46
2022/04/16 14:14:39;;;;;;;;;;;;;;;;;;5114589;28;19914;-48
2022/04/16 14:17:06;;;;;;;;;;;;;;;;;;5114257;28;19929;-50
2022/04/16 14:19:32;;;;;;;;;;;;;;;;;;5113406;28;19912;-50
2022/04/16 14:21:59;;;;;;;;;;;;;;;;;;5114415;28;19911;-52
2022/04/16 14:24:25;;;;;;;;;;;;;;;;;;5114239;28;19999;-46
2022/04/16 14:26:52;;;;;;;;;;;;;;;;;;5114093;28;19960;-47
2022/04/16 14:29:18;;;;;;;;;;;;;;;;;;5114318;28;19983;-48
2022/04/16 14:31:45;;;;;;;;;;;;;;;;;;5114347;28;19907;-52
2022/04/16 14:34:11;;;;;;;;;;;;;;;;;;5114314;28;19957;-50
2022/04/16 14:36:38;;;;;;;;;;;;;;;;;;5114184;28;19912;-54
2022/04/16 14:39:04;;;;;;;;;;;;;;;;;;5113334;28;19912;-46
2022/04/16 14:41:31;;;;;;;;;;;;;;;;;;5114363;28;20003;-48
2022/04/16 14:43:58;;;;;;;;;;;;;;;;;;5114104;28;19984;-48
2022/04/16 14:46:25;;;;;;;;;;;;;;;;;;5112838;28;19912;-45
2022/04/16 14:48:55;;;;;;;;;;;;;;;;;;5113985;28;19907;-53
2022/04/16 14:51:25;;;;;;;;;;;;;;;;;;5113751;28;19912;-46
2022/04/16 14:53:52;;;;;;;;;;;;;;;;;;5114059;28;19908;-53
2022/04/16 14:56:18;;;;;;;;;;;;;;;;;;5113682;28;19908;-46
2022/04/16 14:58:44;;;;;;;;;;;;;;;;;;5113329;28;20418;-44
2022/04/16 15:01:11;;;;;;;;;;;;;;;;;;5113605;28;20014;-55
2022/04/16 15:03:38;;;;;;;;;;;;;;;;;;5114374;28;19912;-55
2022/04/16 15:06:04;;;;;;;;;;;;;;;;;;5113506;28;19976;-53
2022/04/16 15:08:31;;;;;;;;;;;;;;;;;;5113896;28;19916;-53
2022/04/16 15:10:57;;;;;;;;;;;;;;;;;;5113770;28;19915;-51
2022/04/16 15:13:23;;;;;;;;;;;;;;;;;;5113556;28;19916;-55
2022/04/16 15:15:50;;;;;;;;;;;;;;;;;;5113584;28;19911;-57
2022/04/16 15:18:16;;;;;;;;;;;;;;;;;;5113913;28;19965;-53
2022/04/16 15:20:43;;;;;;;;;;;;;;;;;;5113526;28;19962;-55
2022/04/16 15:23:10;;;;;;;;;;;;;;;;;;5113519;28;19911;-55
2022/04/16 15:25:36;;;;;;;;;;;;;;;;;;5113540;28;19908;-55
2022/04/16 15:28:03;;;;;;;;;;;;;;;;;;5113478;28;20350;-54
2022/04/16 15:30:29;;;;;;;;;;;;;;;;;;5114223;28;20314;-56
2022/04/16 15:32:56;;;;;;;;;;;;;;;;;;5117850;28;19914;-51
2022/04/16 15:35:25;;;;;;;;;;;;;;;;;;5117166;28;20002;-55
2022/04/16 15:37:52;;;;;;;;;;;;;;;;;;5117820;28;19908;-56
2022/04/16 15:40:21;;;;;;;;;;;;;;;;;;5117520;28;20319;-53
2022/04/16 15:42:47;;;;;;;;;;;;;;;;;;5115505;28;19995;-51
2022/04/16 15:45:14;;;;;;;;;;;;;;;;;;5097572;28;20244;-49
2022/04/16 15:47:40;;;;;;;;;;;;;;;;;;5097785;28;19912;-50
2022/04/16 15:50:07;;;;;;;;;;;;;;;;;;5097388;28;20370;-53
2022/04/16 15:52:34;;;;;;;;;;;;;;;;;;5097143;28;20002;-54
2022/04/16 15:55:00;;;;;;;;;;;;;;;;;;5097026;28;19912;-51
2022/04/16 15:57:27;;;;;;;;;;;;;;;;;;5096860;28;19914;-54
2022/04/16 15:59:53;;;;;;;;;;;;;;;;;;5096851;28;20398;-53
2022/04/16 16:02:20;;;;;;;;;;;;;;;;;;5096871;28;19982;-54
2022/04/16 16:04:55;;;;;;;;;;;;;;;;;;5096771;28;20073;-53
2022/04/16 16:07:22;;;;;;;;;;;;;;;;;;5096906;28;19908;-54
2022/04/16 16:09:48;;;;;;;;;;;;;;;;;;5101209;28;19907;-51
2022/04/16 16:12:15;;;;;;;;;;;;;;;;;;5116988;28;19915;-54
2022/04/16 16:14:42;;;;;;;;;;;;;;;;;;5117029;28;20381;-52
2022/04/16 16:17:08;;;;;;;;;;;;;;;;;;5112047;28;20431;-53
2022/04/16 16:19:35;;;;;;;;;;;;;;;;;;5096786;28;20355;-56
2022/04/16 16:22:01;;;;;;;;;;;;;;;;;;5096753;28;20294;-57
2022/04/16 16:24:28;;;;;;;;;;;;;;;;;;5107997;28;19908;-52
2022/04/16 16:26:54;;;;;;;;;;;;;;;;;;5116788;28;19918;-53
2022/04/16 16:29:21;;;;;;;;;;;;;;;;;;5116715;28;19983;-53
2022/04/16 16:31:47;;;;;;;;;;;;;;;;;;5116662;28;19915;-48
2022/04/16 16:34:14;;;;;;;;;;;;;;;;;;5116673;28;19916;-44
2022/04/16 16:36:40;;;;;;;;;;;;;;;;;;5116681;28;19907;-49
2022/04/16 16:39:07;;;;;;;;;;;;;;;;;;5116512;28;19987;-53
2022/04/16 16:41:33;;;;;;;;;;;;;;;;;;5115979;28;20022;-52
2022/04/16 16:44:00;;;;;;;;;;;;;;;;;;5116239;28;20343;-55
2022/04/16 16:46:26;;;;;;;;;;;;;;;;;;5116139;28;20463;-51
2022/04/16 16:48:53;;;;;;;;;;;;;;;;;;5116519;27;19908;-51
2022/04/16 16:51:20;;;;;;;;;;;;;;;;;;5116320;28;19908;-57
2022/04/16 16:53:47;;;;;;;;;;;;;;;;;;5116039;28;20018;-49
2022/04/16 16:56:14;;;;;;;;;;;;;;;;;;5116338;28;20486;-56
2022/04/16 16:58:40;;;;;;;;;;;;;;;;;;5116304;28;19911;-52
2022/04/16 17:01:07;;;;;;;;;;;;;;;;;;5116077;28;20035;-55
2022/04/16 17:06:18;;;;;;;;;;;;;;;;;;5116100;28;20420;-52
2022/04/16 17:08:45;;;;;;;;;;;;;;;;;;5116205;28;20316;-54
2022/04/16 17:11:11;;;;;;;;;;;;;;;;;;5115716;28;19903;-55